sensor_id;sensor_type;location;lat;lon;timestamp;P1;durP1;ratioP1;P2;durP2;ratioP2
11807;SDS011;5961;42.640;23.380;2022-08-01T00:00:43;3.00;;;2.80;;
11807;SDS011;5961;42.640;23.380;2022-08-01T00:03:10;4.47;;;3.00;;
11807;SDS011;5961;42.640;23.380;2022-08-01T00:05:38;5.93;;;2.80;;
11807;SDS011;5961;42.640;23.380;2022-08-01T00:08:05;2.70;;;2.50;;
11807;SDS011;5961;42.640;23.380;2022-08-01T00:10:32;3.47;;;2.70;;
11807;SDS011;5961;42.640;23.380;2022-08-01T00:12:59;4.33;;;2.60;;
11807;SDS011;5961;42.640;23.380;2022-08-01T00:15:25;4.13;;;2.70;;
11807;SDS011;5961;42.640;23.380;2022-08-01T00:17:52;3.10;;;2.67;;
11807;SDS011;5961;42.640;23.380;2022-08-01T00:20:19;4.03;;;2.40;;
11807;SDS011;5961;42.640;23.380;2022-08-01T00:22:47;2.40;;;2.20;;
11807;SDS011;5961;42.640;23.380;2022-08-01T00:25:13;3.53;;;2.27;;
11807;SDS011;5961;42.640;23.380;2022-08-01T00:27:40;3.10;;;2.23;;
11807;SDS011;5961;42.640;23.380;2022-08-01T00:30:07;4.23;;;2.70;;
11807;SDS011;5961;42.640;23.380;2022-08-01T00:32:34;5.70;;;2.30;;
11807;SDS011;5961;42.640;23.380;2022-08-01T00:35:01;2.80;;;2.20;;
11807;SDS011;5961;42.640;23.380;2022-08-01T00:37:28;3.00;;;2.20;;
11807;SDS011;5961;42.640;23.380;2022-08-01T00:39:56;3.13;;;2.83;;
11807;SDS011;5961;42.640;23.380;2022-08-01T00:42:23;5.87;;;3.90;;
11807;SDS011;5961;42.640;23.380;2022-08-01T00:44:49;5.97;;;3.60;;
11807;SDS011;5961;42.640;23.380;2022-08-01T00:47:16;7.20;;;4.23;;
11807;SDS011;5961;42.640;23.380;2022-08-01T00:49:43;7.30;;;4.03;;
11807;SDS011;5961;42.640;23.380;2022-08-01T00:52:10;6.37;;;4.43;;
11807;SDS011;5961;42.640;23.380;2022-08-01T00:54:37;4.60;;;4.20;;
11807;SDS011;5961;42.640;23.380;2022-08-01T00:57:05;5.80;;;4.83;;
11807;SDS011;5961;42.640;23.380;2022-08-01T00:59:32;4.70;;;4.40;;
11807;SDS011;5961;42.640;23.380;2022-08-01T01:02:00;7.43;;;5.70;;
11807;SDS011;5961;42.640;23.380;2022-08-01T01:04:27;7.93;;;6.63;;
11807;SDS011;5961;42.640;23.380;2022-08-01T01:06:56;9.07;;;6.70;;
11807;SDS011;5961;42.640;23.380;2022-08-01T01:09:33;6.47;;;5.97;;
11807;SDS011;5961;42.640;23.380;2022-08-01T01:12:13;7.17;;;6.60;;
11807;SDS011;5961;42.640;23.380;2022-08-01T01:14:50;7.53;;;6.83;;
11807;SDS011;5961;42.640;23.380;2022-08-01T01:17:23;7.13;;;6.43;;
11807;SDS011;5961;42.640;23.380;2022-08-01T01:19:54;7.83;;;6.63;;
11807;SDS011;5961;42.640;23.380;2022-08-01T01:28:20;8.40;;;6.23;;
11807;SDS011;5961;42.640;23.380;2022-08-01T01:30:55;6.60;;;6.10;;
11807;SDS011;5961;42.640;23.380;2022-08-01T01:33:25;8.13;;;6.00;;
11807;SDS011;5961;42.640;23.380;2022-08-01T01:35:59;8.67;;;6.00;;
11807;SDS011;5961;42.640;23.380;2022-08-01T01:38:28;7.13;;;5.67;;
11807;SDS011;5961;42.640;23.380;2022-08-01T01:40:58;5.93;;;5.37;;
11807;SDS011;5961;42.640;23.380;2022-08-01T01:43:26;5.57;;;4.73;;
11807;SDS011;5961;42.640;23.380;2022-08-01T01:45:57;4.70;;;4.03;;
11807;SDS011;5961;42.640;23.380;2022-08-01T01:48:24;5.57;;;5.17;;
11807;SDS011;5961;42.640;23.380;2022-08-01T01:50:52;5.70;;;4.80;;
11807;SDS011;5961;42.640;23.380;2022-08-01T01:53:20;6.00;;;4.37;;
11807;SDS011;5961;42.640;23.380;2022-08-01T01:55:49;6.00;;;5.40;;
11807;SDS011;5961;42.640;23.380;2022-08-01T01:58:19;6.87;;;5.20;;
11807;SDS011;5961;42.640;23.380;2022-08-01T02:00:47;7.60;;;5.50;;
11807;SDS011;5961;42.640;23.380;2022-08-01T02:03:17;4.80;;;4.40;;
11807;SDS011;5961;42.640;23.380;2022-08-01T02:05:45;4.90;;;4.50;;
11807;SDS011;5961;42.640;23.380;2022-08-01T02:08:14;5.23;;;4.50;;
11807;SDS011;5961;42.640;23.380;2022-08-01T02:10:42;5.00;;;4.50;;
11807;SDS011;5961;42.640;23.380;2022-08-01T02:13:31;5.17;;;4.67;;
11807;SDS011;5961;42.640;23.380;2022-08-01T02:16:00;4.83;;;4.33;;
11807;SDS011;5961;42.640;23.380;2022-08-01T02:18:29;4.20;;;3.80;;
11807;SDS011;5961;42.640;23.380;2022-08-01T02:20:56;4.00;;;3.70;;
11807;SDS011;5961;42.640;23.380;2022-08-01T02:23:25;5.27;;;3.97;;
11807;SDS011;5961;42.640;23.380;2022-08-01T02:25:58;6.87;;;3.60;;
11807;SDS011;5961;42.640;23.380;2022-08-01T02:28:29;3.90;;;3.30;;
11807;SDS011;5961;42.640;23.380;2022-08-01T02:31:00;3.50;;;3.20;;
11807;SDS011;5961;42.640;23.380;2022-08-01T02:33:33;4.93;;;3.77;;
11807;SDS011;5961;42.640;23.380;2022-08-01T02:36:03;7.93;;;5.07;;
11807;SDS011;5961;42.640;23.380;2022-08-01T02:38:32;5.30;;;3.13;;
11807;SDS011;5961;42.640;23.380;2022-08-01T02:41:07;3.07;;;2.80;;
11807;SDS011;5961;42.640;23.380;2022-08-01T02:43:36;3.13;;;2.83;;
11807;SDS011;5961;42.640;23.380;2022-08-01T02:46:04;4.43;;;2.90;;
11807;SDS011;5961;42.640;23.380;2022-08-01T02:48:36;3.23;;;2.97;;
11807;SDS011;5961;42.640;23.380;2022-08-01T02:51:06;3.60;;;3.20;;
11807;SDS011;5961;42.640;23.380;2022-08-01T02:53:35;3.40;;;3.10;;
11807;SDS011;5961;42.640;23.380;2022-08-01T02:56:06;5.80;;;3.37;;
11807;SDS011;5961;42.640;23.380;2022-08-01T02:58:34;4.17;;;3.60;;
11807;SDS011;5961;42.640;23.380;2022-08-01T03:01:02;4.67;;;3.80;;
11807;SDS011;5961;42.640;23.380;2022-08-01T03:03:30;4.40;;;4.00;;
11807;SDS011;5961;42.640;23.380;2022-08-01T03:06:01;4.47;;;4.10;;
11807;SDS011;5961;42.640;23.380;2022-08-01T03:08:29;4.40;;;4.00;;
11807;SDS011;5961;42.640;23.380;2022-08-01T03:10:57;9.20;;;4.13;;
11807;SDS011;5961;42.640;23.380;2022-08-01T03:13:28;3.80;;;3.50;;
11807;SDS011;5961;42.640;23.380;2022-08-01T03:15:57;6.40;;;3.87;;
11807;SDS011;5961;42.640;23.380;2022-08-01T03:18:26;3.87;;;3.53;;
11807;SDS011;5961;42.640;23.380;2022-08-01T03:20:54;4.90;;;3.43;;
11807;SDS011;5961;42.640;23.380;2022-08-01T03:23:24;4.47;;;3.90;;
11807;SDS011;5961;42.640;23.380;2022-08-01T03:25:54;4.23;;;3.83;;
11807;SDS011;5961;42.640;23.380;2022-08-01T03:28:21;4.53;;;4.13;;
11807;SDS011;5961;42.640;23.380;2022-08-01T03:30:50;7.47;;;3.40;;
11807;SDS011;5961;42.640;23.380;2022-08-01T03:33:17;5.47;;;3.83;;
11807;SDS011;5961;42.640;23.380;2022-08-01T03:35:45;4.37;;;3.40;;
11807;SDS011;5961;42.640;23.380;2022-08-01T03:38:16;5.30;;;3.87;;
11807;SDS011;5961;42.640;23.380;2022-08-01T03:40:49;4.60;;;3.90;;
11807;SDS011;5961;42.640;23.380;2022-08-01T03:43:20;6.83;;;4.10;;
11807;SDS011;5961;42.640;23.380;2022-08-01T03:45:53;6.27;;;4.70;;
11807;SDS011;5961;42.640;23.380;2022-08-01T03:48:28;4.60;;;4.20;;
11807;SDS011;5961;42.640;23.380;2022-08-01T03:50:59;4.63;;;3.60;;
11807;SDS011;5961;42.640;23.380;2022-08-01T03:53:28;5.20;;;3.87;;
11807;SDS011;5961;42.640;23.380;2022-08-01T03:55:58;5.57;;;4.00;;
11807;SDS011;5961;42.640;23.380;2022-08-01T03:58:27;8.50;;;3.30;;
11807;SDS011;5961;42.640;23.380;2022-08-01T04:00:55;4.37;;;3.47;;
11807;SDS011;5961;42.640;23.380;2022-08-01T04:03:22;6.70;;;3.67;;
11807;SDS011;5961;42.640;23.380;2022-08-01T04:05:49;6.83;;;5.03;;
11807;SDS011;5961;42.640;23.380;2022-08-01T04:08:16;8.17;;;4.43;;
11807;SDS011;5961;42.640;23.380;2022-08-01T04:10:43;5.83;;;4.63;;
11807;SDS011;5961;42.640;23.380;2022-08-01T04:13:11;5.57;;;4.00;;
11807;SDS011;5961;42.640;23.380;2022-08-01T04:15:38;5.80;;;3.37;;
11807;SDS011;5961;42.640;23.380;2022-08-01T04:18:04;5.00;;;3.30;;
11807;SDS011;5961;42.640;23.380;2022-08-01T04:20:32;5.97;;;4.53;;
11807;SDS011;5961;42.640;23.380;2022-08-01T04:22:58;5.30;;;4.67;;
11807;SDS011;5961;42.640;23.380;2022-08-01T04:25:26;5.27;;;3.67;;
11807;SDS011;5961;42.640;23.380;2022-08-01T04:28:00;4.40;;;3.70;;
11807;SDS011;5961;42.640;23.380;2022-08-01T04:30:31;14.27;;;11.93;;
11807;SDS011;5961;42.640;23.380;2022-08-01T04:33:01;5.67;;;4.50;;
11807;SDS011;5961;42.640;23.380;2022-08-01T04:35:31;10.13;;;7.40;;
11807;SDS011;5961;42.640;23.380;2022-08-01T04:37:59;8.00;;;4.70;;
11807;SDS011;5961;42.640;23.380;2022-08-01T04:40:28;5.50;;;4.30;;
11807;SDS011;5961;42.640;23.380;2022-08-01T04:42:55;4.37;;;3.97;;
11807;SDS011;5961;42.640;23.380;2022-08-01T04:45:22;3.93;;;3.50;;
11807;SDS011;5961;42.640;23.380;2022-08-01T04:47:51;6.17;;;3.60;;
11807;SDS011;5961;42.640;23.380;2022-08-01T04:50:18;6.40;;;3.80;;
11807;SDS011;5961;42.640;23.380;2022-08-01T04:52:47;5.57;;;3.97;;
11807;SDS011;5961;42.640;23.380;2022-08-01T04:55:13;5.77;;;4.07;;
11807;SDS011;5961;42.640;23.380;2022-08-01T04:57:42;8.43;;;4.87;;
11807;SDS011;5961;42.640;23.380;2022-08-01T05:00:11;6.30;;;5.07;;
11807;SDS011;5961;42.640;23.380;2022-08-01T05:02:39;4.97;;;4.47;;
11807;SDS011;5961;42.640;23.380;2022-08-01T05:05:07;7.20;;;4.30;;
11807;SDS011;5961;42.640;23.380;2022-08-01T05:07:35;4.33;;;3.60;;
11807;SDS011;5961;42.640;23.380;2022-08-01T05:10:03;11.70;;;4.10;;
11807;SDS011;5961;42.640;23.380;2022-08-01T05:12:30;9.87;;;4.40;;
11807;SDS011;5961;42.640;23.380;2022-08-01T05:14:57;5.97;;;4.00;;
11807;SDS011;5961;42.640;23.380;2022-08-01T05:17:24;5.73;;;4.00;;
11807;SDS011;5961;42.640;23.380;2022-08-01T05:19:51;3.73;;;3.43;;
11807;SDS011;5961;42.640;23.380;2022-08-01T05:22:19;5.50;;;3.37;;
11807;SDS011;5961;42.640;23.380;2022-08-01T05:24:47;5.00;;;4.00;;
11807;SDS011;5961;42.640;23.380;2022-08-01T05:27:14;4.47;;;3.90;;
11807;SDS011;5961;42.640;23.380;2022-08-01T05:29:40;8.00;;;4.00;;
11807;SDS011;5961;42.640;23.380;2022-08-01T05:32:07;6.37;;;3.90;;
11807;SDS011;5961;42.640;23.380;2022-08-01T05:34:34;6.17;;;3.80;;
11807;SDS011;5961;42.640;23.380;2022-08-01T05:37:01;5.13;;;3.90;;
11807;SDS011;5961;42.640;23.380;2022-08-01T05:39:29;5.70;;;3.90;;
11807;SDS011;5961;42.640;23.380;2022-08-01T05:41:56;5.03;;;3.77;;
11807;SDS011;5961;42.640;23.380;2022-08-01T05:44:23;8.47;;;3.93;;
11807;SDS011;5961;42.640;23.380;2022-08-01T05:46:50;3.97;;;3.53;;
11807;SDS011;5961;42.640;23.380;2022-08-01T05:49:17;9.07;;;3.60;;
11807;SDS011;5961;42.640;23.380;2022-08-01T05:51:43;6.47;;;4.07;;
11807;SDS011;5961;42.640;23.380;2022-08-01T05:54:10;6.97;;;3.70;;
11807;SDS011;5961;42.640;23.380;2022-08-01T05:56:38;6.47;;;3.80;;
11807;SDS011;5961;42.640;23.380;2022-08-01T05:59:05;3.80;;;3.50;;
11807;SDS011;5961;42.640;23.380;2022-08-01T06:01:32;4.73;;;3.60;;
11807;SDS011;5961;42.640;23.380;2022-08-01T06:03:59;4.35;;;3.67;;
11807;SDS011;5961;42.640;23.380;2022-08-01T06:06:25;6.47;;;3.35;;
11807;SDS011;5961;42.640;23.380;2022-08-01T06:08:52;6.03;;;3.33;;
11807;SDS011;5961;42.640;23.380;2022-08-01T06:11:19;3.40;;;3.10;;
11807;SDS011;5961;42.640;23.380;2022-08-01T06:13:47;5.93;;;3.30;;
11807;SDS011;5961;42.640;23.380;2022-08-01T06:16:13;3.67;;;3.33;;
11807;SDS011;5961;42.640;23.380;2022-08-01T06:18:40;4.85;;;3.22;;
11807;SDS011;5961;42.640;23.380;2022-08-01T06:21:07;8.43;;;3.10;;
11807;SDS011;5961;42.640;23.380;2022-08-01T06:23:34;4.85;;;3.03;;
11807;SDS011;5961;42.640;23.380;2022-08-01T06:26:00;3.35;;;2.72;;
11807;SDS011;5961;42.640;23.380;2022-08-01T06:28:27;3.97;;;2.83;;
11807;SDS011;5961;42.640;23.380;2022-08-01T06:30:55;3.13;;;2.70;;
11807;SDS011;5961;42.640;23.380;2022-08-01T06:33:23;4.68;;;2.70;;
11807;SDS011;5961;42.640;23.380;2022-08-01T06:35:50;3.60;;;2.60;;
11807;SDS011;5961;42.640;23.380;2022-08-01T06:38:17;4.22;;;2.90;;
11807;SDS011;5961;42.640;23.380;2022-08-01T06:40:43;3.10;;;2.80;;
11807;SDS011;5961;42.640;23.380;2022-08-01T06:43:10;3.55;;;2.65;;
11807;SDS011;5961;42.640;23.380;2022-08-01T06:45:37;3.67;;;2.80;;
11807;SDS011;5961;42.640;23.380;2022-08-01T06:48:05;3.47;;;3.17;;
11807;SDS011;5961;42.640;23.380;2022-08-01T06:50:32;3.33;;;2.80;;
11807;SDS011;5961;42.640;23.380;2022-08-01T06:53:00;3.40;;;3.10;;
11807;SDS011;5961;42.640;23.380;2022-08-01T06:55:27;3.78;;;3.08;;
11807;SDS011;5961;42.640;23.380;2022-08-01T06:57:54;3.85;;;3.30;;
11807;SDS011;5961;42.640;23.380;2022-08-01T07:00:21;3.20;;;3.00;;
11807;SDS011;5961;42.640;23.380;2022-08-01T07:02:49;3.83;;;3.13;;
11807;SDS011;5961;42.640;23.380;2022-08-01T07:05:17;3.97;;;3.30;;
11807;SDS011;5961;42.640;23.380;2022-08-01T07:07:44;3.85;;;3.20;;
11807;SDS011;5961;42.640;23.380;2022-08-01T07:10:11;5.88;;;3.25;;
11807;SDS011;5961;42.640;23.380;2022-08-01T07:12:38;3.60;;;2.88;;
11807;SDS011;5961;42.640;23.380;2022-08-01T07:15:06;5.13;;;3.45;;
11807;SDS011;5961;42.640;23.380;2022-08-01T07:17:36;4.03;;;3.42;;
11807;SDS011;5961;42.640;23.380;2022-08-01T07:20:04;3.10;;;2.90;;
11807;SDS011;5961;42.640;23.380;2022-08-01T07:22:33;3.92;;;3.53;;
11807;SDS011;5961;42.640;23.380;2022-08-01T07:25:00;8.25;;;3.40;;
11807;SDS011;5961;42.640;23.380;2022-08-01T07:27:27;3.30;;;3.10;;
11807;SDS011;5961;42.640;23.380;2022-08-01T07:29:54;4.05;;;3.30;;
11807;SDS011;5961;42.640;23.380;2022-08-01T07:32:20;4.15;;;3.30;;
11807;SDS011;5961;42.640;23.380;2022-08-01T07:34:47;4.60;;;3.20;;
11807;SDS011;5961;42.640;23.380;2022-08-01T07:37:14;7.68;;;3.40;;
11807;SDS011;5961;42.640;23.380;2022-08-01T07:39:42;11.65;;;3.63;;
11807;SDS011;5961;42.640;23.380;2022-08-01T07:42:09;4.85;;;3.80;;
11807;SDS011;5961;42.640;23.380;2022-08-01T07:44:36;6.28;;;3.20;;
11807;SDS011;5961;42.640;23.380;2022-08-01T07:47:02;3.80;;;3.20;;
11807;SDS011;5961;42.640;23.380;2022-08-01T07:49:29;5.85;;;3.20;;
11807;SDS011;5961;42.640;23.380;2022-08-01T07:51:56;3.70;;;3.40;;
11807;SDS011;5961;42.640;23.380;2022-08-01T07:54:23;3.70;;;3.38;;
11807;SDS011;5961;42.640;23.380;2022-08-01T07:56:54;3.40;;;3.10;;
11807;SDS011;5961;42.640;23.380;2022-08-01T07:59:21;3.50;;;3.20;;
11807;SDS011;5961;42.640;23.380;2022-08-01T08:01:48;3.72;;;3.40;;
11807;SDS011;5961;42.640;23.380;2022-08-01T08:04:15;3.20;;;2.90;;
11807;SDS011;5961;42.640;23.380;2022-08-01T08:06:42;3.75;;;2.90;;
11807;SDS011;5961;42.640;23.380;2022-08-01T08:09:09;3.70;;;3.28;;
11807;SDS011;5961;42.640;23.380;2022-08-01T08:11:36;4.10;;;3.13;;
11807;SDS011;5961;42.640;23.380;2022-08-01T08:14:04;4.55;;;3.17;;
11807;SDS011;5961;42.640;23.380;2022-08-01T08:16:31;3.70;;;3.40;;
11807;SDS011;5961;42.640;23.380;2022-08-01T08:18:58;4.40;;;3.55;;
11807;SDS011;5961;42.640;23.380;2022-08-01T08:21:24;3.72;;;3.42;;
11807;SDS011;5961;42.640;23.380;2022-08-01T08:23:52;3.53;;;3.22;;
11807;SDS011;5961;42.640;23.380;2022-08-01T08:26:51;3.90;;;2.97;;
11807;SDS011;5961;42.640;23.380;2022-08-01T08:29:21;4.07;;;3.20;;
11807;SDS011;5961;42.640;23.380;2022-08-01T08:31:48;3.95;;;3.47;;
11807;SDS011;5961;42.640;23.380;2022-08-01T08:34:15;3.53;;;3.22;;
11807;SDS011;5961;42.640;23.380;2022-08-01T08:36:42;3.60;;;3.30;;
11807;SDS011;5961;42.640;23.380;2022-08-01T08:39:09;3.42;;;3.13;;
11807;SDS011;5961;42.640;23.380;2022-08-01T08:41:36;3.55;;;2.90;;
11807;SDS011;5961;42.640;23.380;2022-08-01T08:44:03;6.93;;;3.40;;
11807;SDS011;5961;42.640;23.380;2022-08-01T08:46:32;4.75;;;3.00;;
11807;SDS011;5961;42.640;23.380;2022-08-01T08:49:00;4.95;;;3.70;;
11807;SDS011;5961;42.640;23.380;2022-08-01T08:51:29;4.85;;;3.20;;
11807;SDS011;5961;42.640;23.380;2022-08-01T08:53:57;4.05;;;3.40;;
11807;SDS011;5961;42.640;23.380;2022-08-01T08:56:24;4.10;;;3.28;;
11807;SDS011;5961;42.640;23.380;2022-08-01T08:58:55;4.70;;;3.38;;
11807;SDS011;5961;42.640;23.380;2022-08-01T09:01:22;4.57;;;3.10;;
11807;SDS011;5961;42.640;23.380;2022-08-01T09:03:50;6.32;;;3.40;;
11807;SDS011;5961;42.640;23.380;2022-08-01T09:06:17;3.47;;;3.17;;
11807;SDS011;5961;42.640;23.380;2022-08-01T09:08:44;3.33;;;3.00;;
11807;SDS011;5961;42.640;23.380;2022-08-01T09:11:11;7.07;;;3.47;;
11807;SDS011;5961;42.640;23.380;2022-08-01T09:13:37;5.53;;;3.05;;
11807;SDS011;5961;42.640;23.380;2022-08-01T09:16:04;3.53;;;2.90;;
11807;SDS011;5961;42.640;23.380;2022-08-01T09:18:32;3.67;;;2.72;;
11807;SDS011;5961;42.640;23.380;2022-08-01T09:21:12;4.55;;;2.78;;
11807;SDS011;5961;42.640;23.380;2022-08-01T09:23:42;4.97;;;3.00;;
11807;SDS011;5961;42.640;23.380;2022-08-01T09:26:11;2.75;;;2.55;;
11807;SDS011;5961;42.640;23.380;2022-08-01T09:28:38;5.00;;;2.97;;
11807;SDS011;5961;42.640;23.380;2022-08-01T09:31:06;3.47;;;3.17;;
11807;SDS011;5961;42.640;23.380;2022-08-01T09:33:47;3.60;;;3.30;;
11807;SDS011;5961;42.640;23.380;2022-08-01T09:36:17;3.00;;;2.80;;
11807;SDS011;5961;42.640;23.380;2022-08-01T09:38:43;4.65;;;2.80;;
11807;SDS011;5961;42.640;23.380;2022-08-01T09:41:10;2.85;;;2.65;;
11807;SDS011;5961;42.640;23.380;2022-08-01T09:43:37;4.93;;;2.70;;
11807;SDS011;5961;42.640;23.380;2022-08-01T09:46:04;4.20;;;3.00;;
11807;SDS011;5961;42.640;23.380;2022-08-01T09:48:35;2.92;;;2.72;;
11807;SDS011;5961;42.640;23.380;2022-08-01T09:51:04;3.53;;;3.25;;
11807;SDS011;5961;42.640;23.380;2022-08-01T09:53:42;3.20;;;3.00;;
11807;SDS011;5961;42.640;23.380;2022-08-01T09:56:10;3.20;;;2.85;;
11807;SDS011;5961;42.640;23.380;2022-08-01T09:58:48;6.88;;;3.30;;
11807;SDS011;5961;42.640;23.380;2022-08-01T10:01:20;3.55;;;2.85;;
11807;SDS011;5961;42.640;23.380;2022-08-01T10:03:46;3.08;;;2.80;;
11807;SDS011;5961;42.640;23.380;2022-08-01T10:06:29;4.35;;;3.33;;
11807;SDS011;5961;42.640;23.380;2022-08-01T10:08:57;4.55;;;3.55;;
11807;SDS011;5961;42.640;23.380;2022-08-01T10:11:24;3.63;;;3.25;;
11807;SDS011;5961;42.640;23.380;2022-08-01T10:13:51;3.88;;;3.40;;
11807;SDS011;5961;42.640;23.380;2022-08-01T10:16:18;3.50;;;3.20;;
11807;SDS011;5961;42.640;23.380;2022-08-01T10:18:46;4.30;;;2.90;;
11807;SDS011;5961;42.640;23.380;2022-08-01T10:21:13;5.78;;;3.22;;
11807;SDS011;5961;42.640;23.380;2022-08-01T10:23:40;3.38;;;3.08;;
11807;SDS011;5961;42.640;23.380;2022-08-01T10:26:10;3.88;;;3.10;;
11807;SDS011;5961;42.640;23.380;2022-08-01T10:28:39;3.22;;;2.90;;
11807;SDS011;5961;42.640;23.380;2022-08-01T10:31:07;3.08;;;2.78;;
11807;SDS011;5961;42.640;23.380;2022-08-01T10:33:34;3.63;;;2.83;;
11807;SDS011;5961;42.640;23.380;2022-08-01T10:36:04;3.78;;;2.70;;
11807;SDS011;5961;42.640;23.380;2022-08-01T10:38:32;3.47;;;3.17;;
11807;SDS011;5961;42.640;23.380;2022-08-01T10:40:59;2.72;;;2.50;;
11807;SDS011;5961;42.640;23.380;2022-08-01T10:43:30;4.05;;;3.15;;
11807;SDS011;5961;42.640;23.380;2022-08-01T10:45:57;3.03;;;2.80;;
11807;SDS011;5961;42.640;23.380;2022-08-01T10:48:26;3.45;;;3.13;;
11807;SDS011;5961;42.640;23.380;2022-08-01T10:50:57;3.33;;;3.03;;
11807;SDS011;5961;42.640;23.380;2022-08-01T10:53:27;3.42;;;3.00;;
11807;SDS011;5961;42.640;23.380;2022-08-01T10:55:57;4.05;;;2.90;;
11807;SDS011;5961;42.640;23.380;2022-08-01T10:58:26;3.47;;;3.00;;
11807;SDS011;5961;42.640;23.380;2022-08-01T11:01:16;2.95;;;2.75;;
11807;SDS011;5961;42.640;23.380;2022-08-01T11:03:57;4.25;;;3.00;;
11807;SDS011;5961;42.640;23.380;2022-08-01T11:06:35;4.05;;;3.03;;
11807;SDS011;5961;42.640;23.380;2022-08-01T11:09:15;3.15;;;2.90;;
11807;SDS011;5961;42.640;23.380;2022-08-01T11:12:02;2.92;;;2.72;;
11807;SDS011;5961;42.640;23.380;2022-08-01T11:15:17;3.13;;;2.83;;
11807;SDS011;5961;42.640;23.380;2022-08-01T11:17:38;2.63;;;2.42;;
11807;SDS011;5961;42.640;23.380;2022-08-01T11:20:09;2.90;;;2.70;;
11807;SDS011;5961;42.640;23.380;2022-08-01T11:26:13;2.92;;;2.70;;
11807;SDS011;5961;42.640;23.380;2022-08-01T11:28:41;3.22;;;2.80;;
11807;SDS011;5961;42.640;23.380;2022-08-01T11:31:29;3.75;;;2.88;;
11807;SDS011;5961;42.640;23.380;2022-08-01T11:34:01;3.10;;;2.70;;
11807;SDS011;5961;42.640;23.380;2022-08-01T11:36:27;3.83;;;2.53;;
11807;SDS011;5961;42.640;23.380;2022-08-01T11:41:44;3.75;;;3.00;;
11807;SDS011;5961;42.640;23.380;2022-08-01T11:44:13;3.00;;;2.80;;
11807;SDS011;5961;42.640;23.380;2022-08-01T11:46:52;3.13;;;2.83;;
11807;SDS011;5961;42.640;23.380;2022-08-01T11:51:59;4.18;;;3.03;;
11807;SDS011;5961;42.640;23.380;2022-08-01T11:54:27;3.30;;;3.00;;
11807;SDS011;5961;42.640;23.380;2022-08-01T11:56:55;2.75;;;2.65;;
11807;SDS011;5961;42.640;23.380;2022-08-01T11:59:23;3.10;;;2.85;;
11807;SDS011;5961;42.640;23.380;2022-08-01T12:01:50;3.30;;;3.00;;
11807;SDS011;5961;42.640;23.380;2022-08-01T12:04:16;3.17;;;2.97;;
11807;SDS011;5961;42.640;23.380;2022-08-01T12:06:43;4.30;;;2.95;;
11807;SDS011;5961;42.640;23.380;2022-08-01T12:09:18;3.45;;;3.20;;
11807;SDS011;5961;42.640;23.380;2022-08-01T12:11:47;3.33;;;3.03;;
11807;SDS011;5961;42.640;23.380;2022-08-01T12:14:20;4.25;;;3.10;;
11807;SDS011;5961;42.640;23.380;2022-08-01T12:16:51;3.47;;;3.00;;
11807;SDS011;5961;42.640;23.380;2022-08-01T12:19:19;5.00;;;3.17;;
11807;SDS011;5961;42.640;23.380;2022-08-01T12:24:36;3.85;;;3.13;;
11807;SDS011;5961;42.640;23.380;2022-08-01T12:27:04;3.88;;;3.42;;
11807;SDS011;5961;42.640;23.380;2022-08-01T12:29:32;4.20;;;3.10;;
11807;SDS011;5961;42.640;23.380;2022-08-01T12:31:59;4.97;;;3.15;;
11807;SDS011;5961;42.640;23.380;2022-08-01T12:34:26;3.30;;;3.05;;
11807;SDS011;5961;42.640;23.380;2022-08-01T12:36:54;3.67;;;3.38;;
11807;SDS011;5961;42.640;23.380;2022-08-01T12:39:22;3.63;;;3.33;;
11807;SDS011;5961;42.640;23.380;2022-08-01T12:41:56;4.28;;;3.25;;
11807;SDS011;5961;42.640;23.380;2022-08-01T12:44:23;4.07;;;3.45;;
11807;SDS011;5961;42.640;23.380;2022-08-01T12:46:49;3.30;;;3.00;;
11807;SDS011;5961;42.640;23.380;2022-08-01T12:49:17;3.67;;;3.47;;
11807;SDS011;5961;42.640;23.380;2022-08-01T12:51:44;4.93;;;3.60;;
11807;SDS011;5961;42.640;23.380;2022-08-01T12:54:11;3.65;;;3.30;;
11807;SDS011;5961;42.640;23.380;2022-08-01T12:56:37;3.58;;;3.28;;
11807;SDS011;5961;42.640;23.380;2022-08-01T13:01:50;3.35;;;3.08;;
11807;SDS011;5961;42.640;23.380;2022-08-01T13:04:17;3.90;;;3.60;;
11807;SDS011;5961;42.640;23.380;2022-08-01T13:06:44;3.75;;;3.40;;
11807;SDS011;5961;42.640;23.380;2022-08-01T13:09:11;3.60;;;3.22;;
11807;SDS011;5961;42.640;23.380;2022-08-01T13:11:38;4.30;;;3.47;;
11807;SDS011;5961;42.640;23.380;2022-08-01T13:14:05;5.20;;;3.25;;
11807;SDS011;5961;42.640;23.380;2022-08-01T13:16:44;3.58;;;3.20;;
11807;SDS011;5961;42.640;23.380;2022-08-01T13:19:12;4.88;;;3.45;;
11807;SDS011;5961;42.640;23.380;2022-08-01T13:21:54;3.58;;;3.30;;
11807;SDS011;5961;42.640;23.380;2022-08-01T13:24:25;4.20;;;3.10;;
11807;SDS011;5961;42.640;23.380;2022-08-01T13:26:54;3.40;;;3.20;;
11807;SDS011;5961;42.640;23.380;2022-08-01T13:29:31;4.05;;;3.20;;
11807;SDS011;5961;42.640;23.380;2022-08-01T13:32:01;5.65;;;3.30;;
11807;SDS011;5961;42.640;23.380;2022-08-01T13:34:39;3.33;;;3.03;;
11807;SDS011;5961;42.640;23.380;2022-08-01T13:37:05;4.70;;;3.60;;
11807;SDS011;5961;42.640;23.380;2022-08-01T13:39:33;3.33;;;3.10;;
11807;SDS011;5961;42.640;23.380;2022-08-01T13:42:10;3.58;;;3.38;;
11807;SDS011;5961;42.640;23.380;2022-08-01T13:44:39;3.53;;;3.33;;
11807;SDS011;5961;42.640;23.380;2022-08-01T13:47:07;5.13;;;3.40;;
11807;SDS011;5961;42.640;23.380;2022-08-01T13:49:34;3.33;;;3.10;;
11807;SDS011;5961;42.640;23.380;2022-08-01T13:52:01;3.45;;;3.25;;
11807;SDS011;5961;42.640;23.380;2022-08-01T13:54:31;3.70;;;3.40;;
11807;SDS011;5961;42.640;23.380;2022-08-01T13:56:58;3.65;;;3.22;;
11807;SDS011;5961;42.640;23.380;2022-08-01T13:59:25;3.35;;;3.05;;
11807;SDS011;5961;42.640;23.380;2022-08-01T14:01:52;4.32;;;3.00;;
11807;SDS011;5961;42.640;23.380;2022-08-01T14:04:20;4.53;;;2.97;;
11807;SDS011;5961;42.640;23.380;2022-08-01T14:06:47;3.42;;;3.22;;
11807;SDS011;5961;42.640;23.380;2022-08-01T14:09:14;3.47;;;3.17;;
11807;SDS011;5961;42.640;23.380;2022-08-01T14:11:41;3.30;;;3.10;;
11807;SDS011;5961;42.640;23.380;2022-08-01T14:14:08;3.30;;;3.10;;
11807;SDS011;5961;42.640;23.380;2022-08-01T14:16:35;4.85;;;3.20;;
11807;SDS011;5961;42.640;23.380;2022-08-01T14:19:02;3.28;;;3.08;;
11807;SDS011;5961;42.640;23.380;2022-08-01T14:21:30;3.47;;;3.17;;
11807;SDS011;5961;42.640;23.380;2022-08-01T14:23:57;4.38;;;3.20;;
11807;SDS011;5961;42.640;23.380;2022-08-01T14:26:24;3.35;;;3.15;;
11807;SDS011;5961;42.640;23.380;2022-08-01T14:28:50;3.35;;;3.00;;
11807;SDS011;5961;42.640;23.380;2022-08-01T14:31:17;3.75;;;3.20;;
11807;SDS011;5961;42.640;23.380;2022-08-01T14:33:44;4.85;;;3.30;;
11807;SDS011;5961;42.640;23.380;2022-08-01T14:36:11;3.50;;;3.20;;
11807;SDS011;5961;42.640;23.380;2022-08-01T14:38:39;3.40;;;3.10;;
11807;SDS011;5961;42.640;23.380;2022-08-01T14:41:06;3.50;;;3.20;;
11807;SDS011;5961;42.640;23.380;2022-08-01T14:43:33;4.63;;;3.10;;
11807;SDS011;5961;42.640;23.380;2022-08-01T14:46:00;2.70;;;2.55;;
11807;SDS011;5961;42.640;23.380;2022-08-01T14:48:28;3.60;;;3.30;;
11807;SDS011;5961;42.640;23.380;2022-08-01T14:50:55;7.43;;;3.38;;
11807;SDS011;5961;42.640;23.380;2022-08-01T14:53:22;3.58;;;3.10;;
11807;SDS011;5961;42.640;23.380;2022-08-01T14:55:50;3.38;;;2.88;;
11807;SDS011;5961;42.640;23.380;2022-08-01T14:58:17;3.00;;;2.80;;
11807;SDS011;5961;42.640;23.380;2022-08-01T15:00:43;3.30;;;3.00;;
11807;SDS011;5961;42.640;23.380;2022-08-01T15:03:10;3.22;;;2.88;;
11807;SDS011;5961;42.640;23.380;2022-08-01T15:05:37;2.83;;;2.63;;
11807;SDS011;5961;42.640;23.380;2022-08-01T15:08:05;3.55;;;3.13;;
11807;SDS011;5961;42.640;23.380;2022-08-01T15:10:32;3.85;;;2.90;;
11807;SDS011;5961;42.640;23.380;2022-08-01T15:13:00;3.13;;;2.92;;
11807;SDS011;5961;42.640;23.380;2022-08-01T15:15:27;3.65;;;3.00;;
11807;SDS011;5961;42.640;23.380;2022-08-01T15:17:54;2.97;;;2.78;;